createdAt,value
2022-10-12T00:01:35.416Z,7.46
2022-10-12T00:06:38.071Z,7.4
2022-10-12T00:11:40.763Z,7.27
2022-10-12T00:16:43.458Z,7.18
2022-10-12T00:21:46.137Z,7.23
2022-10-12T00:26:48.831Z,7.12
2022-10-12T00:31:51.654Z,7.13
2022-10-12T00:36:54.080Z,7.14
2022-10-12T00:41:56.772Z,7.06
2022-10-12T00:46:59.468Z,7.13
2022-10-12T00:52:02.231Z,7.14
2022-10-12T00:57:04.939Z,7.22
2022-10-12T01:02:07.570Z,7.34
2022-10-12T01:07:10.255Z,7.39
2022-10-12T01:12:12.981Z,7.35
2022-10-12T01:17:15.495Z,7.32
2022-10-12T01:22:18.247Z,7.24
2022-10-12T01:27:21.593Z,7.19
2022-10-12T01:32:24.479Z,7.11
2022-10-12T01:37:26.977Z,7.1
2022-10-12T01:42:29.654Z,6.94
2022-10-12T01:47:32.361Z,7.03
2022-10-12T01:52:34.955Z,7.02
2022-10-12T01:57:37.833Z,7.04
2022-10-12T02:02:40.183Z,6.82
2022-10-12T02:07:42.921Z,6.92
2022-10-12T02:12:45.648Z,6.77
2022-10-12T02:17:48.345Z,6.71
2022-10-12T02:22:50.913Z,6.7
2022-10-12T02:27:53.775Z,6.59
2022-10-12T02:32:56.487Z,6.65
2022-10-12T02:37:59.234Z,6.45
2022-10-12T02:43:10.709Z,6.47
2022-10-12T02:48:04.435Z,6.51
2022-10-12T02:53:15.134Z,6.5
2022-10-12T02:58:18.028Z,6.51
2022-10-12T03:03:20.734Z,6.57
2022-10-12T03:08:23.409Z,6.55
2022-10-12T03:13:26.030Z,6.53
2022-10-12T03:18:28.574Z,6.37
2022-10-12T03:23:31.225Z,6.27
2022-10-12T03:28:33.726Z,6.41
2022-10-12T03:33:36.237Z,6.47
2022-10-12T03:38:38.890Z,6.46
2022-10-12T03:43:41.581Z,6.49
2022-10-12T03:48:44.203Z,6.48
2022-10-12T03:53:46.965Z,6.45
2022-10-12T03:58:49.468Z,6.44
2022-10-12T04:03:52.134Z,6.4
2022-10-12T04:08:54.604Z,6.43
2022-10-12T04:13:57.348Z,6.43
2022-10-12T04:19:00.145Z,6.35
2022-10-12T04:24:02.734Z,6.29
2022-10-12T04:29:05.452Z,6.25
2022-10-12T04:34:08.503Z,6.16
2022-10-12T04:39:11.014Z,5.99
2022-10-12T04:44:16.494Z,6.11
2022-10-12T04:49:19.319Z,5.99
2022-10-12T04:59:25.114Z,6.08
2022-10-12T05:04:30.616Z,6.11
2022-10-12T05:09:33.250Z,6.06
2022-10-12T05:14:36.237Z,6.05
2022-10-12T05:19:38.557Z,6.11
2022-10-12T05:24:41.270Z,6.12
2022-10-12T05:29:43.972Z,6.19
2022-10-12T05:34:46.485Z,6.21
2022-10-12T05:39:49.251Z,6.26
2022-10-12T05:44:51.990Z,6.31
2022-10-12T05:49:54.671Z,6.39
2022-10-12T05:54:57.458Z,6.68
2022-10-12T06:00:00.293Z,6.88
2022-10-12T06:05:03.180Z,7.08
2022-10-12T06:10:06.008Z,7.36
2022-10-12T06:15:08.901Z,7.78
2022-10-12T06:20:11.686Z,8.29
2022-10-12T06:25:14.454Z,8.61
2022-10-12T06:30:17.249Z,8.94
2022-10-12T06:35:20.077Z,9.33
2022-10-12T06:40:22.972Z,9.58
2022-10-12T06:45:25.787Z,9.83
2022-10-12T06:50:28.733Z,10.12
2022-10-12T06:55:31.456Z,10.61
2022-10-12T07:00:34.272Z,10.85
2022-10-12T07:05:39.789Z,11.21
2022-10-12T07:10:42.352Z,11.79
2022-10-12T07:15:45.311Z,12.06
2022-10-12T07:20:48.249Z,12.41
2022-10-12T07:30:53.867Z,12.75
2022-10-12T07:36:13.116Z,13.18
2022-10-12T07:40:59.502Z,13.69
2022-10-12T07:46:02.459Z,14.11
2022-10-12T07:51:05.376Z,14.41
2022-10-12T07:56:07.939Z,14.81
2022-10-12T08:01:10.551Z,14.74
2022-10-12T08:11:15.740Z,14.85
2022-10-12T08:21:21.130Z,15.31
2022-10-12T08:26:23.319Z,15.33
2022-10-12T08:31:25.896Z,15.3
2022-10-12T08:36:33.584Z,15.21
2022-10-12T08:41:36.209Z,15.74
2022-10-12T08:51:41.782Z,15.62
2022-10-12T08:56:45.015Z,16.02
2022-10-12T09:01:47.752Z,16.43
2022-10-12T09:06:53.163Z,15.86
2022-10-12T09:11:55.781Z,16.67
2022-10-12T09:16:58.837Z,16.15
2022-10-12T09:22:01.280Z,15.69
2022-10-12T09:27:03.985Z,16.54
2022-10-12T09:42:13.240Z,17.31
2022-10-12T09:52:18.896Z,18.04
2022-10-12T10:02:24.913Z,18.31
2022-10-12T10:12:30.304Z,17.8
2022-10-12T10:17:32.982Z,17.72
2022-10-12T10:22:35.567Z,16.94
2022-10-12T10:32:44.109Z,18.08
2022-10-12T10:37:49.646Z,18.58
2022-10-12T10:42:52.382Z,18.06
2022-10-12T10:47:57.493Z,17.89
2022-10-12T10:53:00.049Z,17.52
2022-10-12T10:58:05.148Z,17.95
2022-10-12T11:08:10.871Z,16.99
2022-10-12T11:13:13.471Z,17.82
2022-10-12T11:23:19.330Z,18.33
2022-10-12T11:28:22.300Z,19.01
2022-10-12T11:44:30.112Z,18.87
2022-10-12T11:49:28.758Z,18.53
2022-10-12T11:59:34.259Z,19.74
2022-10-12T12:04:42.040Z,19.27
2022-10-12T12:09:39.955Z,18.9
2022-10-12T12:29:53.650Z,18.54
2022-10-12T12:35:00.156Z,17.76
2022-10-12T12:39:58.843Z,18.15
2022-10-12T12:45:01.655Z,18.54
2022-10-12T12:50:04.612Z,18.49
2022-10-12T12:55:07.329Z,18.43
2022-10-12T13:00:10.440Z,18.34
2022-10-12T13:05:12.988Z,17.83
2022-10-12T13:10:15.540Z,17.66
2022-10-12T13:15:18.316Z,17.42
2022-10-12T13:20:20.953Z,17.4
2022-10-12T13:25:23.433Z,16.77
2022-10-12T13:30:26.030Z,16.69
2022-10-12T13:35:28.619Z,16.71
2022-10-12T13:40:31.663Z,17.05
2022-10-12T13:45:34.118Z,16.99
2022-10-12T13:50:36.963Z,17.07
2022-10-12T13:55:39.722Z,16.66
2022-10-12T14:00:42.451Z,16.7
2022-10-12T14:05:44.977Z,16.61
2022-10-12T14:10:48.394Z,17.08
2022-10-12T14:15:51.040Z,17.26
2022-10-12T14:20:53.403Z,16.6
2022-10-12T14:25:56.227Z,16.56
2022-10-12T14:30:58.858Z,16.17
2022-10-12T14:36:01.403Z,16.3
2022-10-12T14:41:04.048Z,16.38
2022-10-12T14:46:06.717Z,15.94
2022-10-12T14:51:09.207Z,15.65
2022-10-12T14:56:11.966Z,15.69
2022-10-12T15:06:17.179Z,15.59
2022-10-12T15:11:20.112Z,15.69
2022-10-12T15:16:22.660Z,15.43
2022-10-12T15:21:26.097Z,15.38
2022-10-12T15:26:28.979Z,15.43
2022-10-12T15:31:31.600Z,15.69
2022-10-12T15:36:33.987Z,15.32
2022-10-12T15:41:36.404Z,15.12
2022-10-12T15:46:38.969Z,15.11
2022-10-12T15:51:41.689Z,14.92
2022-10-12T15:56:44.158Z,14.84
2022-10-12T16:01:46.809Z,14.68
2022-10-12T16:06:49.732Z,14.49
2022-10-12T16:11:52.335Z,14.38
2022-10-12T16:16:54.872Z,14.55
2022-10-12T16:21:57.891Z,14.3
2022-10-12T16:27:00.663Z,14.1
2022-10-12T16:32:03.273Z,13.96
2022-10-12T16:37:05.968Z,13.85
2022-10-12T16:42:08.473Z,13.76
2022-10-12T16:47:11.015Z,13.7
2022-10-12T16:52:13.736Z,13.64
2022-10-12T16:57:16.162Z,13.55
2022-10-12T17:02:18.945Z,13.49
2022-10-12T17:07:21.517Z,13.41
2022-10-12T17:12:24.350Z,13.38
2022-10-12T17:17:26.950Z,13.25
2022-10-12T17:22:29.522Z,13.2
2022-10-12T17:27:32.581Z,13.13
2022-10-12T17:32:35.094Z,13.08
2022-10-12T17:43:07.971Z,12.97
2022-10-12T17:48:11.490Z,12.87
2022-10-12T17:53:14.459Z,12.83
2022-10-12T17:58:17.170Z,12.79
2022-10-12T18:03:24.876Z,12.75
2022-10-12T18:08:23.259Z,12.7
2022-10-12T18:13:26.500Z,12.62
2022-10-12T18:18:29.181Z,12.57
2022-10-12T18:23:31.669Z,12.53
2022-10-12T18:28:34.336Z,12.48
2022-10-12T18:33:36.759Z,12.45
2022-10-12T18:38:39.513Z,12.44
2022-10-12T18:43:42.398Z,12.37
2022-10-12T18:48:45.582Z,12.35
2022-10-12T18:53:48.274Z,12.28
2022-10-12T18:58:51.115Z,12.2
2022-10-12T19:03:53.670Z,12.07
2022-10-12T19:08:56.280Z,12.07
2022-10-12T19:13:59.083Z,12.04
2022-10-12T19:19:01.739Z,12
2022-10-12T19:24:04.226Z,11.92
2022-10-12T19:29:07.632Z,11.94
2022-10-12T19:34:10.452Z,11.94
2022-10-12T19:39:13.143Z,11.88
2022-10-12T19:44:15.831Z,11.83
2022-10-12T19:49:18.526Z,11.82
2022-10-12T19:54:21.134Z,11.71
2022-10-12T19:59:23.787Z,11.67
2022-10-12T20:04:26.461Z,11.58
2022-10-12T20:09:29.176Z,11.56
2022-10-12T20:14:31.878Z,11.48
2022-10-12T20:19:34.603Z,11.47
2022-10-12T20:24:37.480Z,11.41
2022-10-12T20:29:40.055Z,11.39
2022-10-12T20:34:42.678Z,11.43
2022-10-12T20:39:45.387Z,11.33
2022-10-12T20:44:48.053Z,11.3
2022-10-12T20:49:50.637Z,11.26
2022-10-12T20:54:54.154Z,11.25
2022-10-12T20:59:57.133Z,11.11
2022-10-12T21:04:59.889Z,11.07
2022-10-12T21:10:02.614Z,11
2022-10-12T21:15:05.620Z,10.95
2022-10-12T21:20:08.408Z,10.88
2022-10-12T21:25:13.841Z,10.83
2022-10-12T21:30:16.645Z,10.86
2022-10-12T21:35:19.440Z,10.77
2022-10-12T21:40:22.613Z,10.74
2022-10-12T21:45:25.111Z,10.63
2022-10-12T21:50:27.707Z,10.57
2022-10-12T21:55:30.389Z,10.57
2022-10-12T22:00:33.767Z,10.56
2022-10-12T22:05:36.227Z,10.49
2022-10-12T22:10:38.743Z,10.39
2022-10-12T22:15:41.209Z,10.29
2022-10-12T22:20:43.907Z,10.24
2022-10-12T22:25:46.676Z,10.15
2022-10-12T22:30:49.428Z,10.1
2022-10-12T22:35:52.068Z,10.03
2022-10-12T22:40:55.090Z,10.04
2022-10-12T22:45:57.760Z,9.98
2022-10-12T22:51:00.095Z,9.9
2022-10-12T22:56:03.036Z,9.88
2022-10-12T23:01:05.589Z,9.83
2022-10-12T23:06:11.030Z,9.75
2022-10-12T23:11:13.899Z,9.72
2022-10-12T23:16:16.259Z,9.6
2022-10-12T23:21:19.043Z,9.55
2022-10-12T23:26:21.931Z,9.54
2022-10-12T23:31:24.452Z,9.42
2022-10-12T23:36:27.184Z,9.34
2022-10-12T23:41:29.931Z,9.35
2022-10-12T23:46:32.781Z,9.39
2022-10-12T23:51:35.328Z,9.37
2022-10-12T23:56:38.138Z,9.34
